Time;durP1;ratioP1;P1;durP2;ratioP2;P2;SDS_P1;SDS_P2;PMS_P1;PMS_P2;Temp;Humidity;BMP_temperature;BMP_pressure;BME280_temperature;BME280_humidity;BME280_pressure;Samples;Min_cycle;Max_cycle;Signal;HPM_P1;HPM_P2
2023/04/30 00:01:55;;;;;;;24.83;18.00;;;14.40;99.90;;;;;;4994501;28;20246;-89
2023/04/30 00:04:21;;;;;;;21.17;16.33;;;14.40;99.90;;;;;;4995664;28;20263;-80
2023/04/30 00:06:46;;;;;;;19.27;16.83;;;14.40;99.90;;;;;;4995587;28;20918;-80
2023/04/30 00:09:12;;;;;;;19.73;15.77;;;14.50;99.90;;;;;;4996330;28;20566;-80
2023/04/30 00:11:38;;;;;;;19.50;16.20;;;14.50;99.90;;;;;;4997202;28;20203;-89
2023/04/30 00:14:03;;;;;;;21.50;16.20;;;14.50;99.90;;;;;;4996487;28;20561;-80
2023/04/30 00:16:29;;;;;;;17.27;15.00;;;14.50;99.90;;;;;;4997106;28;20223;-89
2023/04/30 00:18:55;;;;;;;15.70;13.37;;;14.50;99.90;;;;;;4995092;28;20194;-81
2023/04/30 00:21:20;;;;;;;18.60;14.70;;;14.50;99.90;;;;;;4994274;28;20662;-90
2023/04/30 00:23:46;;;;;;;19.00;16.30;;;14.50;99.90;;;;;;4994397;28;20184;-90
2023/04/30 00:26:12;;;;;;;23.23;16.10;;;14.50;99.90;;;;;;4994293;28;20277;-90
2023/04/30 00:28:37;;;;;;;20.60;16.87;;;14.50;99.90;;;;;;4994765;28;20180;-90
2023/04/30 00:31:05;;;;;;;22.83;18.27;;;14.50;99.90;;;;;;4993787;28;20192;-83
2023/04/30 00:33:31;;;;;;;20.53;17.23;;;14.40;99.90;;;;;;4993978;28;20605;-80
2023/04/30 00:35:57;;;;;;;21.60;17.83;;;14.40;99.90;;;;;;4995073;28;20457;-80
2023/04/30 00:38:23;;;;;;;21.03;17.20;;;14.40;99.90;;;;;;4993893;28;20449;-88
2023/04/30 00:40:49;;;;;;;21.70;15.90;;;14.40;99.90;;;;;;4993921;28;20262;-81
2023/04/30 00:43:14;;;;;;;18.40;16.47;;;14.50;99.90;;;;;;4993905;28;20460;-90
2023/04/30 00:45:40;;;;;;;24.60;17.23;;;14.40;99.90;;;;;;4994955;28;20433;-80
2023/04/30 00:48:06;;;;;;;17.33;15.43;;;14.40;99.90;;;;;;4994864;28;20192;-90
2023/04/30 00:50:35;;;;;;;21.20;17.73;;;14.40;99.90;;;;;;4994911;28;20550;-80
2023/04/30 00:53:01;;;;;;;19.00;16.67;;;14.30;99.90;;;;;;4993652;28;20426;-80
2023/04/30 00:55:27;;;;;;;18.93;16.87;;;14.30;99.90;;;;;;4993485;28;20474;-80
2023/04/30 00:57:53;;;;;;;19.43;17.27;;;14.40;99.90;;;;;;4995124;28;21025;-87
2023/04/30 01:00:19;;;;;;;19.17;16.47;;;14.40;99.90;;;;;;4994848;28;20441;-80
2023/04/30 01:02:45;;;;;;;20.10;16.80;;;14.40;99.90;;;;;;4994809;28;20898;-80
2023/04/30 01:05:11;;;;;;;24.87;17.60;;;14.40;99.90;;;;;;4994510;28;20235;-80
2023/04/30 01:07:40;;;;;;;20.60;17.20;;;14.30;99.90;;;;;;4994747;28;20548;-80
2023/04/30 01:10:06;;;;;;;24.70;18.77;;;14.30;99.90;;;;;;4994515;28;20417;-80
2023/04/30 01:12:43;;;;;;;24.23;17.93;;;14.30;99.90;;;;;;4993385;28;20414;-90
2023/04/30 01:15:46;;;;;;;20.67;17.83;;;14.30;99.90;;;;;;4993502;28;20512;-90
2023/04/30 01:18:34;;;;;;;24.23;17.50;;;14.20;99.90;;;;;;4993619;28;20455;-90
2023/04/30 01:21:10;;;;;;;24.70;17.17;;;14.20;99.90;;;;;;4994414;28;20425;-81
2023/04/30 01:24:13;;;;;;;21.90;17.10;;;14.20;99.90;;;;;;4993330;28;20980;-90
2023/04/30 01:27:07;;;;;;;23.93;18.13;;;14.20;99.90;;;;;;4994814;28;20425;-88
2023/04/30 01:29:33;;;;;;;21.37;17.93;;;14.20;99.90;;;;;;4995247;28;20433;-80
2023/04/30 01:32:01;;;;;;;24.20;16.90;;;14.20;99.90;;;;;;4994326;28;20838;-81
2023/04/30 01:34:27;;;;;;;19.20;15.70;;;14.20;99.90;;;;;;4995098;28;20823;-90
2023/04/30 01:37:04;;;;;;;21.03;17.10;;;14.20;99.90;;;;;;4994241;28;20433;-80
2023/04/30 01:39:37;;;;;;;23.80;17.90;;;14.30;99.90;;;;;;4996387;28;20175;-89
2023/04/30 01:42:23;;;;;;;19.93;16.13;;;14.30;99.90;;;;;;4997340;28;20449;-89
2023/04/30 01:45:05;;;;;;;20.40;17.23;;;14.20;99.90;;;;;;4997250;28;20783;-90
2023/04/30 01:48:05;;;;;;;23.43;17.83;;;14.10;99.90;;;;;;4998450;28;20409;-80
2023/04/30 01:50:33;;;;;;;20.40;17.43;;;14.10;99.90;;;;;;4998190;28;20931;-80
2023/04/30 01:53:01;;;;;;;21.23;17.33;;;14.20;99.90;;;;;;4996923;28;20840;-81
2023/04/30 01:55:58;;;;;;;20.03;16.20;;;14.10;99.90;;;;;;4996905;28;21026;-80
2023/04/30 01:58:24;;;;;;;19.10;17.10;;;14.10;99.90;;;;;;4990220;28;20494;-89
2023/04/30 02:00:51;;;;;;;17.73;15.13;;;14.10;99.90;;;;;;4998194;28;20799;-90
2023/04/30 02:03:17;;;;;;;18.67;16.47;;;14.10;99.90;;;;;;4999983;28;20433;-90
2023/04/30 02:05:43;;;;;;;21.00;15.97;;;14.10;99.90;;;;;;4999393;28;20572;-80
2023/04/30 02:08:08;;;;;;;18.60;15.10;;;14.10;99.90;;;;;;4996995;28;20442;-90
2023/04/30 02:10:34;;;;;;;17.80;15.90;;;14.10;99.90;;;;;;4997809;28;20422;-81
2023/04/30 02:13:00;;;;;;;20.60;16.47;;;14.20;99.90;;;;;;4997786;28;20187;-80
2023/04/30 02:15:26;;;;;;;18.70;16.10;;;14.20;99.90;;;;;;4996571;28;20253;-90
2023/04/30 02:17:54;;;;;;;18.80;16.80;;;14.20;99.90;;;;;;4996422;28;20186;-90
2023/04/30 02:20:20;;;;;;;19.77;17.63;;;14.20;99.90;;;;;;4996380;28;20437;-89
2023/04/30 02:22:46;;;;;;;19.67;16.17;;;14.20;99.90;;;;;;4996378;28;20516;-80
2023/04/30 02:25:12;;;;;;;17.70;15.80;;;14.20;99.90;;;;;;4996376;28;20433;-80
2023/04/30 02:27:39;;;;;;;19.33;17.20;;;14.20;99.90;;;;;;4997664;28;20168;-89
2023/04/30 02:30:05;;;;;;;17.07;15.27;;;14.30;99.90;;;;;;4996364;28;20532;-90
2023/04/30 02:32:31;;;;;;;17.37;15.40;;;14.30;99.90;;;;;;4997635;28;20406;-90
2023/04/30 02:34:57;;;;;;;20.10;18.00;;;14.30;99.90;;;;;;4997248;28;21020;-80
2023/04/30 02:37:23;;;;;;;19.83;16.87;;;14.30;99.90;;;;;;4997431;28;20655;-89
2023/04/30 02:39:49;;;;;;;18.20;16.40;;;14.30;99.90;;;;;;4995928;28;20421;-90
2023/04/30 02:42:15;;;;;;;18.27;16.20;;;14.40;99.90;;;;;;4997335;28;20917;-89
2023/04/30 02:44:41;;;;;;;19.60;16.17;;;14.40;99.90;;;;;;4997539;28;20418;-80
2023/04/30 02:47:07;;;;;;;18.13;16.10;;;14.40;99.90;;;;;;4997313;28;20649;-85
2023/04/30 02:49:32;;;;;;;19.60;17.03;;;14.40;99.90;;;;;;4997626;28;20926;-80
2023/04/30 02:51:58;;;;;;;21.63;16.07;;;14.40;99.90;;;;;;4994949;28;20211;-87
2023/04/30 02:54:24;;;;;;;16.87;15.07;;;14.40;99.90;;;;;;4996045;28;20224;-89
2023/04/30 02:56:49;;;;;;;17.97;15.87;;;14.40;99.90;;;;;;4996955;28;20234;-89
2023/04/30 02:59:15;;;;;;;22.87;15.77;;;14.50;99.90;;;;;;4997366;28;20180;-90
2023/04/30 03:01:41;;;;;;;16.90;14.50;;;14.40;99.90;;;;;;4995775;28;20438;-88
2023/04/30 03:04:07;;;;;;;17.50;15.43;;;14.40;99.90;;;;;;4995480;28;20238;-89
2023/04/30 03:06:33;;;;;;;21.70;15.83;;;14.40;99.90;;;;;;4995947;28;20210;-90
2023/04/30 03:09:00;;;;;;;16.13;14.40;;;14.30;99.90;;;;;;4997571;28;20478;-80
2023/04/30 03:11:26;;;;;;;17.80;16.00;;;14.30;99.90;;;;;;4996547;28;20437;-89
2023/04/30 03:13:52;;;;;;;17.57;14.20;;;14.30;99.90;;;;;;4996931;28;20433;-90
2023/04/30 03:16:19;;;;;;;19.77;16.40;;;14.20;99.90;;;;;;4996852;28;20893;-80
2023/04/30 03:18:48;;;;;;;21.30;16.63;;;14.20;99.90;;;;;;4996858;28;20424;-80
2023/04/30 03:21:14;;;;;;;20.57;16.40;;;14.30;99.90;;;;;;4995175;28;20996;-89
2023/04/30 03:23:40;;;;;;;18.80;16.10;;;14.30;99.90;;;;;;4995512;28;20461;-89
2023/04/30 03:26:07;;;;;;;24.20;16.23;;;14.20;99.90;;;;;;4996477;28;20830;-90
2023/04/30 03:28:33;;;;;;;22.63;16.97;;;14.20;99.90;;;;;;4996756;28;20184;-83
2023/04/30 03:30:59;;;;;;;21.10;17.20;;;14.20;99.90;;;;;;4996342;28;20792;-80
2023/04/30 03:33:25;;;;;;;18.80;16.80;;;14.20;99.90;;;;;;4996335;28;20472;-89
2023/04/30 03:35:51;;;;;;;19.03;16.63;;;14.10;99.90;;;;;;4995013;28;20840;-80
2023/04/30 03:38:16;;;;;;;19.33;17.30;;;14.10;99.90;;;;;;4995147;28;20545;-80
2023/04/30 03:40:42;;;;;;;20.50;18.40;;;14.10;99.90;;;;;;4996030;28;20251;-80
2023/04/30 03:43:08;;;;;;;18.67;16.73;;;14.10;99.90;;;;;;4994888;28;20199;-87
2023/04/30 03:45:33;;;;;;;22.23;17.70;;;14.20;99.90;;;;;;4996314;28;20192;-80
2023/04/30 03:47:59;;;;;;;19.90;16.30;;;14.20;99.90;;;;;;4995778;28;20180;-80
2023/04/30 03:50:25;;;;;;;21.63;17.17;;;14.20;99.90;;;;;;4994611;28;20207;-90
2023/04/30 03:52:51;;;;;;;20.20;17.60;;;14.20;99.90;;;;;;4996204;28;20235;-80
2023/04/30 03:55:17;;;;;;;18.70;15.83;;;14.20;99.90;;;;;;4994556;28;20226;-89
2023/04/30 03:57:43;;;;;;;19.20;17.27;;;14.20;99.90;;;;;;4994712;28;20720;-89
2023/04/30 04:00:12;;;;;;;19.77;17.67;;;14.30;99.90;;;;;;4995329;28;20444;-81
2023/04/30 04:02:38;;;;;;;18.27;16.30;;;14.30;99.90;;;;;;4994844;28;20420;-83
2023/04/30 04:05:04;;;;;;;20.07;17.50;;;14.30;99.90;;;;;;4996924;28;20834;-89
2023/04/30 04:07:30;;;;;;;18.80;16.03;;;14.20;99.90;;;;;;4995613;28;20405;-89
2023/04/30 04:09:56;;;;;;;18.10;16.20;;;14.30;99.90;;;;;;4994409;28;20401;-80
2023/04/30 04:12:21;;;;;;;19.83;17.80;;;14.30;99.90;;;;;;4994383;28;20180;-80
2023/04/30 04:14:47;;;;;;;21.77;16.47;;;14.40;99.90;;;;;;4995457;28;20222;-80
2023/04/30 04:17:13;;;;;;;20.50;17.27;;;14.40;99.90;;;;;;4994170;28;20184;-86
2023/04/30 04:19:39;;;;;;;17.37;15.63;;;14.40;99.90;;;;;;4995635;28;20187;-80
2023/04/30 04:22:05;;;;;;;37.20;18.07;;;14.40;99.90;;;;;;4995294;28;20175;-81
2023/04/30 04:24:31;;;;;;;21.27;17.73;;;14.30;99.90;;;;;;4995713;28;20421;-89
2023/04/30 04:26:57;;;;;;;23.80;16.80;;;14.40;99.90;;;;;;4995263;28;20779;-89
2023/04/30 04:29:22;;;;;;;21.37;18.37;;;14.40;99.90;;;;;;4994152;28;20184;-80
2023/04/30 04:31:49;;;;;;;18.97;15.80;;;14.30;99.90;;;;;;4994918;28;20200;-84
2023/04/30 04:34:16;;;;;;;18.40;16.37;;;14.40;99.90;;;;;;4993930;28;20215;-88
2023/04/30 04:36:41;;;;;;;17.63;15.73;;;14.40;99.90;;;;;;4993831;28;20437;-80
2023/04/30 04:39:07;;;;;;;19.17;16.00;;;14.30;99.90;;;;;;4993987;28;20499;-80
2023/04/30 04:41:36;;;;;;;19.20;16.07;;;14.30;99.90;;;;;;4993643;28;20250;-80
2023/04/30 04:44:03;;;;;;;18.30;15.47;;;14.30;99.90;;;;;;4995215;28;20429;-89
2023/04/30 04:46:30;;;;;;;20.70;15.87;;;14.30;99.90;;;;;;4993604;28;20909;-88
2023/04/30 04:48:56;;;;;;;19.10;17.07;;;14.30;99.90;;;;;;4995325;28;20771;-89
2023/04/30 04:51:22;;;;;;;21.93;17.17;;;14.30;99.90;;;;;;4994793;28;20524;-80
2023/04/30 04:53:48;;;;;;;20.67;16.63;;;14.40;99.90;;;;;;4995603;28;20508;-84
2023/04/30 04:56:14;;;;;;;24.83;17.57;;;14.40;99.90;;;;;;4993629;28;20838;-88
2023/04/30 04:58:41;;;;;;;22.17;16.73;;;14.40;99.90;;;;;;4995093;28;20182;-89
2023/04/30 05:01:08;;;;;;;24.77;19.30;;;14.50;99.90;;;;;;4995141;28;20448;-80
2023/04/30 05:03:35;;;;;;;22.50;17.20;;;14.50;99.90;;;;;;4994559;28;20527;-81
2023/04/30 05:06:05;;;;;;;22.10;17.63;;;14.50;99.90;;;;;;4993376;28;20433;-89
2023/04/30 05:08:31;;;;;;;22.63;18.73;;;14.50;99.90;;;;;;4993665;28;20430;-80
2023/04/30 05:10:56;;;;;;;21.27;18.07;;;14.50;99.90;;;;;;4993288;28;20846;-80
2023/04/30 05:13:22;;;;;;;21.23;16.50;;;14.60;99.90;;;;;;4992884;28;20480;-89
2023/04/30 05:15:51;;;;;;;17.83;14.83;;;14.70;99.90;;;;;;4993232;28;20632;-83
2023/04/30 05:18:16;;;;;;;17.77;15.90;;;14.70;99.90;;;;;;4994534;28;20238;-80
2023/04/30 05:20:42;;;;;;;19.13;16.50;;;14.70;99.90;;;;;;4994437;28;20506;-89
2023/04/30 05:23:07;;;;;;;21.63;17.20;;;14.80;99.90;;;;;;4993267;28;20192;-86
2023/04/30 05:25:34;;;;;;;21.80;16.00;;;14.80;99.90;;;;;;4994606;28;20191;-80
2023/04/30 05:28:00;;;;;;;19.40;15.53;;;14.90;99.90;;;;;;4993201;28;20188;-89
2023/04/30 05:30:26;;;;;;;17.20;15.40;;;14.90;99.90;;;;;;4993254;28;20499;-80
2023/04/30 05:32:52;;;;;;;19.10;16.20;;;15.00;99.90;;;;;;4994354;28;20414;-89
2023/04/30 05:35:18;;;;;;;18.23;16.03;;;15.00;99.90;;;;;;4993165;28;21106;-82
2023/04/30 05:37:45;;;;;;;19.20;17.03;;;15.10;99.90;;;;;;4994368;28;20428;-80
2023/04/30 05:40:11;;;;;;;22.00;17.40;;;15.10;99.90;;;;;;4993025;28;20849;-90
2023/04/30 05:42:39;;;;;;;21.80;17.10;;;15.10;99.90;;;;;;4993188;28;20997;-80
2023/04/30 05:45:06;;;;;;;21.80;16.47;;;15.20;99.90;;;;;;4993076;28;20520;-89
2023/04/30 05:47:32;;;;;;;22.87;17.60;;;15.20;99.90;;;;;;4994310;28;20456;-89
2023/04/30 05:49:57;;;;;;;21.33;17.73;;;15.30;99.90;;;;;;4992986;28;20947;-88
2023/04/30 05:52:23;;;;;;;25.83;17.20;;;15.30;99.90;;;;;;4994302;28;20653;-88
2023/04/30 05:54:49;;;;;;;18.83;16.40;;;15.40;99.90;;;;;;4994233;28;20250;-89
2023/04/30 05:57:15;;;;;;;21.67;17.97;;;15.40;99.90;;;;;;4994577;28;20496;-83
2023/04/30 05:59:41;;;;;;;21.40;17.47;;;15.40;99.90;;;;;;4994610;28;20444;-80
2023/04/30 06:02:07;;;;;;;22.23;17.50;;;15.50;99.90;;;;;;4994282;28;20397;-87
2023/04/30 06:04:32;;;;;;;19.60;16.10;;;15.60;99.90;;;;;;4992678;28;20693;-80
2023/04/30 06:06:58;;;;;;;22.03;17.40;;;15.70;99.90;;;;;;4990917;28;20420;-80
2023/04/30 06:09:24;;;;;;;19.17;15.57;;;15.80;99.90;;;;;;4993718;28;20622;-80
2023/04/30 06:11:50;;;;;;;16.30;14.60;;;15.90;99.90;;;;;;4990370;28;20195;-80
2023/04/30 06:14:17;;;;;;;22.23;15.67;;;16.00;99.90;;;;;;4992721;28;20215;-89
2023/04/30 06:16:44;;;;;;;17.80;14.03;;;16.10;99.90;;;;;;4991304;28;20430;-89
2023/04/30 06:19:09;;;;;;;16.80;14.10;;;16.30;99.90;;;;;;4992279;28;20519;-89
2023/04/30 06:21:35;;;;;;;15.47;13.93;;;16.50;99.90;;;;;;4991745;28;20961;-80
2023/04/30 06:24:01;;;;;;;14.57;13.07;;;16.70;99.90;;;;;;4988765;28;20519;-90
2023/04/30 06:26:27;;;;;;;19.73;13.70;;;16.80;99.90;;;;;;4991685;28;20208;-89
2023/04/30 06:28:52;;;;;;;15.20;12.43;;;16.90;99.90;;;;;;4992294;28;20405;-90
2023/04/30 06:31:18;;;;;;;13.97;12.53;;;17.00;99.90;;;;;;4993793;28;20457;-88
2023/04/30 06:33:44;;;;;;;12.53;11.10;;;17.10;99.90;;;;;;4991934;28;20250;-81
2023/04/30 06:36:10;;;;;;;15.60;12.50;;;17.10;99.90;;;;;;4993719;28;20209;-89
2023/04/30 06:38:36;;;;;;;14.57;12.20;;;17.20;99.90;;;;;;4994096;28;20188;-81
2023/04/30 06:41:01;;;;;;;12.43;11.10;;;17.30;99.90;;;;;;4996412;28;20939;-80
2023/04/30 06:43:27;;;;;;;13.00;11.60;;;17.30;99.90;;;;;;4997225;28;20246;-81
2023/04/30 06:45:53;;;;;;;14.47;11.27;;;17.40;99.90;;;;;;4995968;28;20211;-82
2023/04/30 06:48:19;;;;;;;11.57;10.47;;;17.50;99.90;;;;;;4997471;28;20176;-89
2023/04/30 06:50:44;;;;;;;11.83;10.47;;;17.50;99.90;;;;;;4996014;28;20196;-81
2023/04/30 06:53:11;;;;;;;12.37;10.83;;;17.60;99.90;;;;;;4996122;28;20787;-81
2023/04/30 06:55:37;;;;;;;11.60;10.40;;;17.70;99.90;;;;;;4995868;28;20630;-89
2023/04/30 06:58:04;;;;;;;16.80;11.20;;;17.80;99.90;;;;;;4996027;28;20432;-88
2023/04/30 07:00:30;;;;;;;13.70;10.57;;;17.90;99.90;;;;;;4995724;28;20227;-80
2023/04/30 07:02:59;;;;;;;11.53;10.43;;;18.00;99.90;;;;;;4996026;28;21034;-81
2023/04/30 07:05:25;;;;;;;15.17;11.03;;;18.20;99.90;;;;;;4997323;28;20474;-90
2023/04/30 07:07:51;;;;;;;12.80;9.70;;;18.30;99.90;;;;;;4995720;28;20433;-81
2023/04/30 07:10:17;;;;;;;10.83;9.70;;;18.40;99.90;;;;;;4996907;28;20943;-90
2023/04/30 07:12:43;;;;;;;10.23;9.13;;;18.50;99.90;;;;;;4995582;28;20195;-81
2023/04/30 07:15:10;;;;;;;11.73;10.47;;;18.60;99.90;;;;;;4996637;28;20531;-89
2023/04/30 07:17:36;;;;;;;9.67;8.70;;;18.60;99.90;;;;;;4995634;28;20421;-90
2023/04/30 07:20:03;;;;;;;9.67;8.70;;;18.70;99.90;;;;;;4995394;28;20480;-90
2023/04/30 07:22:30;;;;;;;12.30;9.50;;;18.80;99.90;;;;;;4996553;28;20242;-90
2023/04/30 07:24:56;;;;;;;8.80;8.00;;;18.90;99.90;;;;;;4995234;28;20414;-90
2023/04/30 07:27:22;;;;;;;9.40;8.27;;;19.00;99.90;;;;;;4996769;28;20463;-81
2023/04/30 07:29:48;;;;;;;11.93;9.27;;;19.10;99.90;;;;;;4995089;28;20416;-86
2023/04/30 07:32:15;;;;;;;9.97;8.97;;;19.20;99.90;;;;;;4995374;28;20192;-83
2023/04/30 07:34:41;;;;;;;11.43;10.27;;;19.40;99.90;;;;;;4995051;28;20221;-90
2023/04/30 07:37:08;;;;;;;11.90;9.07;;;19.50;99.90;;;;;;4994624;28;20415;-85
2023/04/30 07:39:35;;;;;;;11.87;8.63;;;19.60;99.90;;;;;;4996827;28;20920;-82
2023/04/30 07:42:02;;;;;;;11.90;9.43;;;19.70;99.90;;;;;;4994872;28;21005;-89
2023/04/30 07:44:27;;;;;;;11.17;9.40;;;19.80;99.90;;;;;;4995226;28;20434;-89
2023/04/30 07:46:53;;;;;;;10.03;9.00;;;19.90;99.90;;;;;;4994674;28;20442;-81
2023/04/30 07:49:19;;;;;;;10.53;9.10;;;20.00;99.90;;;;;;4996376;28;20264;-81
2023/04/30 07:51:45;;;;;;;12.20;10.97;;;20.10;99.90;;;;;;4994763;28;20254;-90
2023/04/30 07:54:11;;;;;;;14.33;11.67;;;20.20;99.90;;;;;;4995106;28;20467;-81
2023/04/30 07:56:37;;;;;;;11.70;10.60;;;20.30;99.90;;;;;;4994822;28;20444;-81
2023/04/30 07:59:02;;;;;;;19.07;16.50;;;20.40;99.90;;;;;;4994717;28;20652;-81
2023/04/30 08:01:28;;;;;;;27.70;20.13;;;20.40;99.90;;;;;;4995670;28;20202;-81
2023/04/30 08:03:54;;;;;;;31.10;20.70;;;20.40;99.90;;;;;;4995614;28;20272;-80
2023/04/30 08:06:20;;;;;;;12.23;10.40;;;20.40;99.90;;;;;;4995864;28;20285;-81
2023/04/30 08:08:46;;;;;;;10.77;9.67;;;20.40;99.90;;;;;;4994833;28;20440;-90
2023/04/30 08:11:12;;;;;;;12.13;9.93;;;20.50;99.90;;;;;;4994715;28;20438;-91
2023/04/30 08:13:37;;;;;;;14.03;10.90;;;20.60;99.90;;;;;;4994819;28;20194;-90
2023/04/30 08:16:03;;;;;;;11.63;10.53;;;20.80;99.90;;;;;;4995514;28;20222;-85
2023/04/30 08:18:31;;;;;;;11.77;10.17;;;20.80;99.90;;;;;;4994702;28;20256;-82
2023/04/30 08:20:56;;;;;;;13.10;10.23;;;20.90;99.90;;;;;;4993634;28;20211;-81
2023/04/30 08:23:22;;;;;;;11.43;10.33;;;21.00;99.90;;;;;;4974408;28;20426;-89
2023/04/30 08:25:48;;;;;;;14.27;10.27;;;21.00;99.90;;;;;;4973521;28;20445;-82
2023/04/30 08:28:13;;;;;;;15.50;9.87;;;21.00;99.90;;;;;;4974206;28;20196;-89
2023/04/30 08:30:39;;;;;;;11.00;9.90;;;21.10;99.90;;;;;;4975464;28;20202;-91
2023/04/30 08:33:05;;;;;;;13.07;10.03;;;21.10;99.90;;;;;;4974729;28;20188;-90
2023/04/30 08:35:30;;;;;;;12.90;11.60;;;21.20;99.90;;;;;;4975892;28;20220;-81
2023/04/30 08:37:57;;;;;;;12.50;9.10;;;21.20;99.90;;;;;;4991423;28;20192;-92
2023/04/30 08:40:22;;;;;;;11.47;9.63;;;21.30;99.90;;;;;;4975717;28;20577;-90
2023/04/30 08:43:07;;;;;;;10.63;9.37;;;21.40;99.90;;;;;;4974378;28;20525;-89
2023/04/30 08:45:35;;;;;;;9.80;9.00;;;21.50;99.60;;;;;;4975864;28;20249;-90
2023/04/30 08:48:03;;;;;;;9.70;8.73;;;21.60;99.60;;;;;;4975387;28;21023;-81
2023/04/30 08:50:29;;;;;;;9.20;8.30;;;21.70;99.50;;;;;;4975281;28;20465;-81
2023/04/30 08:52:57;;;;;;;9.43;8.50;;;21.80;99.60;;;;;;4975506;28;20422;-81
2023/04/30 08:55:25;;;;;;;9.00;8.20;;;22.00;99.40;;;;;;4974193;28;20489;-82
2023/04/30 08:57:51;;;;;;;11.90;8.03;;;22.10;98.90;;;;;;4974679;28;20514;-90
2023/04/30 09:00:17;;;;;;;9.67;8.70;;;22.30;99.10;;;;;;4975472;28;20512;-81
2023/04/30 09:02:43;;;;;;;9.37;8.40;;;22.40;99.40;;;;;;4973703;28;20189;-81
2023/04/30 09:05:11;;;;;;;11.27;8.97;;;22.50;98.90;;;;;;4972435;28;20279;-82
2023/04/30 09:07:42;;;;;;;10.00;9.00;;;22.60;98.90;;;;;;4977556;28;20436;-90
2023/04/30 09:10:20;;;;;;;11.13;8.90;;;22.80;98.90;;;;;;4987592;28;20466;-89
2023/04/30 09:13:08;;;;;;;10.80;9.80;;;23.00;99.00;;;;;;4973931;28;20434;-90
2023/04/30 09:15:35;;;;;;;13.10;10.87;;;23.10;98.50;;;;;;4975466;28;21037;-82
2023/04/30 09:18:16;;;;;;;11.83;10.73;;;23.00;99.00;;;;;;4979161;28;20813;-90
2023/04/30 09:21:00;;;;;;;10.70;9.70;;;22.90;99.30;;;;;;4974807;28;20434;-81
2023/04/30 09:23:27;;;;;;;12.07;10.83;;;22.90;99.50;;;;;;4974075;28;20426;-81
2023/04/30 09:25:53;;;;;;;10.40;9.50;;;22.90;99.50;;;;;;4970874;28;20457;-82
2023/04/30 09:28:22;;;;;;;10.23;9.23;;;23.00;99.60;;;;;;4983549;28;20446;-91
2023/04/30 09:30:49;;;;;;;12.00;10.90;;;23.00;99.50;;;;;;4973416;28;20970;-91
2023/04/30 09:33:15;;;;;;;10.67;9.57;;;23.00;99.40;;;;;;4987833;28;20472;-91
2023/04/30 09:35:41;;;;;;;9.17;8.20;;;22.90;99.30;;;;;;4990658;28;20515;-81
2023/04/30 09:38:07;;;;;;;13.13;11.03;;;22.90;99.30;;;;;;4989169;28;20243;-81
2023/04/30 09:40:39;;;;;;;12.93;11.10;;;22.80;99.00;;;;;;4990252;28;20492;-87
2023/04/30 09:43:05;;;;;;;10.47;9.37;;;22.60;99.40;;;;;;4991713;28;20922;-90
2023/04/30 09:45:42;;;;;;;9.10;8.00;;;22.60;99.40;;;;;;4992509;28;20422;-90
2023/04/30 09:48:10;;;;;;;10.87;7.47;;;22.60;99.90;;;;;;4991772;28;20448;-81
2023/04/30 09:50:40;;;;;;;7.77;6.93;;;22.70;99.90;;;;;;4992565;28;20786;-82
2023/04/30 09:53:13;;;;;;;8.27;7.43;;;22.80;99.70;;;;;;4995576;28;20933;-91
2023/04/30 09:55:42;;;;;;;11.33;8.00;;;22.90;99.80;;;;;;4995954;28;20468;-90
2023/04/30 09:58:09;;;;;;;8.77;7.97;;;22.90;99.90;;;;;;4993675;28;20436;-82
2023/04/30 10:00:36;;;;;;;8.10;7.40;;;23.00;99.90;;;;;;4996242;28;20429;-82
2023/04/30 10:03:07;;;;;;;8.03;7.23;;;23.10;99.60;;;;;;4996975;28;20429;-91
2023/04/30 10:05:47;;;;;;;9.90;6.77;;;23.20;99.40;;;;;;4998487;28;20942;-82
2023/04/30 10:08:20;;;;;;;6.97;6.37;;;23.30;98.60;;;;;;4998432;28;20432;-91
2023/04/30 10:10:52;;;;;;;8.13;7.33;;;23.40;98.40;;;;;;4996855;28;20441;-90
2023/04/30 10:13:19;;;;;;;9.43;5.67;;;23.30;98.20;;;;;;4998116;28;20883;-91
2023/04/30 10:15:50;;;;;;;6.73;6.00;;;23.30;98.40;;;;;;4997670;28;20477;-90
2023/04/30 10:18:33;;;;;;;6.53;5.80;;;23.40;97.80;;;;;;4996733;28;20426;-92
2023/04/30 10:21:01;;;;;;;6.43;5.10;;;23.50;97.30;;;;;;4996811;28;20819;-89
2023/04/30 10:23:29;;;;;;;5.20;4.70;;;23.50;97.40;;;;;;4996811;28;20426;-91
2023/04/30 10:25:56;;;;;;;5.50;5.00;;;23.50;97.30;;;;;;4997495;28;20787;-81
2023/04/30 10:28:22;;;;;;;4.90;4.50;;;23.60;97.30;;;;;;4996427;28;20472;-82
2023/04/30 10:30:50;;;;;;;4.10;3.80;;;23.70;97.00;;;;;;4997583;28;20438;-91
2023/04/30 10:33:36;;;;;;;5.90;5.30;;;23.70;96.50;;;;;;4996245;28;20428;-81
2023/04/30 10:36:08;;;;;;;3.60;3.07;;;23.60;95.70;;;;;;4997748;28;20476;-90
2023/04/30 10:38:36;;;;;;;3.47;3.23;;;23.40;95.70;;;;;;4996314;28;20460;-84
2023/04/30 10:41:05;;;;;;;3.90;3.60;;;23.30;95.50;;;;;;4996263;28;20496;-82
2023/04/30 10:43:31;;;;;;;3.63;3.33;;;23.30;95.80;;;;;;4997716;28;20424;-90
2023/04/30 10:45:57;;;;;;;3.77;3.50;;;23.40;95.80;;;;;;4997425;28;21218;-91
2023/04/30 10:48:24;;;;;;;4.03;3.63;;;23.50;96.30;;;;;;4996460;28;20512;-81
2023/04/30 10:50:57;;;;;;;4.60;4.20;;;23.60;95.70;;;;;;4997376;28;20430;-81
2023/04/30 10:53:26;;;;;;;7.10;5.30;;;23.70;96.00;;;;;;4996198;28;20451;-90
2023/04/30 10:56:05;;;;;;;6.67;5.50;;;23.70;96.30;;;;;;4996903;28;20477;-82
2023/04/30 10:58:35;;;;;;;6.60;6.10;;;23.70;96.30;;;;;;4996232;28;20442;-91
2023/04/30 11:01:03;;;;;;;5.53;5.13;;;23.60;96.60;;;;;;4995981;28;20563;-91
2023/04/30 11:03:29;;;;;;;5.60;5.10;;;23.60;96.30;;;;;;4995818;28;20478;-82
2023/04/30 11:05:55;;;;;;;6.80;5.33;;;23.60;96.00;;;;;;4995809;28;20524;-90
2023/04/30 11:08:44;;;;;;;7.60;6.90;;;23.50;96.10;;;;;;4995846;28;20874;-91
2023/04/30 11:11:11;;;;;;;6.37;5.87;;;23.40;96.50;;;;;;4996717;28;20204;-82
2023/04/30 11:13:56;;;;;;;8.23;6.30;;;23.30;96.90;;;;;;4995394;28;20426;-82
2023/04/30 11:16:33;;;;;;;6.20;5.60;;;23.30;96.70;;;;;;4996914;28;20446;-91
2023/04/30 11:19:13;;;;;;;5.97;5.47;;;23.40;97.10;;;;;;4997060;28;20758;-89
2023/04/30 11:22:04;;;;;;;5.20;4.70;;;23.50;96.70;;;;;;4995430;28;20446;-81
2023/04/30 11:24:49;;;;;;;9.37;7.73;;;23.60;96.50;;;;;;4996215;28;20943;-90
2023/04/30 11:27:19;;;;;;;6.00;4.97;;;23.60;96.10;;;;;;4997499;28;20417;-81
2023/04/30 11:29:46;;;;;;;5.17;4.67;;;23.60;96.30;;;;;;4995567;28;20436;-82
2023/04/30 11:32:12;;;;;;;8.60;6.10;;;23.70;95.90;;;;;;4995259;28;20428;-82
2023/04/30 11:34:39;;;;;;;23.80;13.93;;;23.80;95.70;;;;;;4995324;28;20513;-91
2023/04/30 11:37:05;;;;;;;12.40;10.73;;;23.80;95.40;;;;;;5011422;28;20775;-90
2023/04/30 11:39:35;;;;;;;9.30;6.97;;;23.70;95.10;;;;;;4995700;28;20430;-91
2023/04/30 11:42:02;;;;;;;8.43;6.60;;;23.70;95.30;;;;;;4997097;28;20426;-82
2023/04/30 11:44:28;;;;;;;5.23;4.73;;;23.60;95.10;;;;;;4996871;28;20441;-91
2023/04/30 11:46:53;;;;;;;5.20;4.87;;;23.50;95.30;;;;;;4996281;28;20421;-82
2023/04/30 11:49:20;;;;;;;5.93;4.70;;;23.50;96.20;;;;;;4996649;28;20434;-90
2023/04/30 11:51:50;;;;;;;5.43;4.93;;;23.50;96.60;;;;;;4996277;28;20516;-82
2023/04/30 11:54:17;;;;;;;4.60;4.30;;;23.50;97.20;;;;;;4995204;28;20501;-81
2023/04/30 11:56:47;;;;;;;4.70;4.30;;;23.60;96.70;;;;;;4994964;28;20465;-81
2023/04/30 11:59:14;;;;;;;5.60;5.20;;;23.60;96.80;;;;;;4995963;28;20468;-81
2023/04/30 12:01:41;;;;;;;5.73;4.80;;;23.50;96.00;;;;;;4996057;28;20421;-91
2023/04/30 12:04:10;;;;;;;5.27;4.90;;;23.50;95.90;;;;;;4994896;28;20465;-82
2023/04/30 12:06:36;;;;;;;4.90;4.50;;;23.50;95.70;;;;;;4995804;28;20960;-91
2023/04/30 12:09:07;;;;;;;5.80;3.87;;;23.50;95.40;;;;;;4996101;28;20422;-81
2023/04/30 12:11:34;;;;;;;5.23;4.10;;;23.50;95.50;;;;;;4995139;28;20215;-91
2023/04/30 12:14:11;;;;;;;5.20;3.70;;;23.60;94.90;;;;;;4995890;28;20431;-91
2023/04/30 12:16:41;;;;;;;4.27;3.83;;;23.60;94.20;;;;;;4995789;28;20954;-82
2023/04/30 12:19:07;;;;;;;4.33;3.87;;;23.60;94.30;;;;;;4994445;28;20804;-90
2023/04/30 12:21:33;;;;;;;4.13;3.83;;;23.70;94.00;;;;;;4994202;28;20429;-90
2023/04/30 12:23:59;;;;;;;4.00;3.70;;;23.80;94.20;;;;;;4992976;28;20429;-90
2023/04/30 12:26:38;;;;;;;3.97;3.67;;;23.90;93.50;;;;;;4993612;28;20986;-92
2023/04/30 12:29:24;;;;;;;3.90;3.60;;;23.90;93.00;;;;;;4992791;28;20427;-89
2023/04/30 12:31:51;;;;;;;4.57;3.93;;;24.00;93.50;;;;;;4991804;28;20430;-82
2023/04/30 12:34:17;;;;;;;4.00;3.63;;;24.10;92.40;;;;;;4992254;28;20509;-82
2023/04/30 12:36:43;;;;;;;4.10;3.70;;;24.10;92.70;;;;;;4988873;28;20526;-92
2023/04/30 12:39:12;;;;;;;3.60;3.30;;;24.20;91.70;;;;;;4976700;28;20882;-82